createdAt,value
2022-09-28T00:00:01.105Z,89.32
2022-09-28T00:00:33.095Z,89.13
2022-09-28T00:01:15.735Z,89.67
2022-09-28T00:01:47.428Z,89.37
2022-09-28T00:02:19.352Z,89.87
2022-09-28T00:02:51.279Z,90.31
2022-09-28T00:03:22.931Z,89.95
2022-09-28T00:03:59.855Z,90.57
2022-09-28T00:04:33.207Z,90.41
2022-09-28T00:05:06.201Z,90.45
2022-09-28T00:05:37.701Z,90.85
2022-09-28T00:06:12.405Z,90.02
2022-09-28T00:06:44.196Z,90.46
2022-09-28T00:07:15.696Z,90.66
2022-09-28T00:07:47.207Z,90.91
2022-09-28T00:08:18.710Z,90.84
2022-09-28T00:08:50.421Z,90.62
2022-09-28T00:09:21.937Z,90.63
2022-09-28T00:09:54.062Z,90.67
2022-09-28T00:10:25.586Z,90.35
2022-09-28T00:10:57.644Z,90.60
2022-09-28T00:11:29.287Z,90.63
2022-09-28T00:12:01.117Z,90.83
2022-09-28T00:12:33.720Z,90.92
2022-09-28T00:13:06.873Z,90.64
2022-09-28T00:13:38.816Z,90.99
2022-09-28T00:14:11.036Z,91.05
2022-09-28T00:14:44.641Z,90.01
2022-09-28T00:15:16.589Z,89.98
2022-09-28T00:15:48.128Z,89.73
2022-09-28T00:16:22.466Z,90.10
2022-09-28T00:16:54.101Z,90.81
2022-09-28T00:17:26.527Z,90.67
2022-09-28T00:17:58.083Z,90.42
2022-09-28T00:18:30.062Z,90.04
2022-09-28T00:19:03.062Z,89.50
2022-09-28T00:19:34.701Z,89.30
2022-09-28T00:20:06.489Z,89.26
2022-09-28T00:20:38.014Z,89.90
2022-09-28T00:21:12.930Z,89.38
2022-09-28T00:21:44.456Z,90.62
2022-09-28T00:22:15.966Z,90.19
2022-09-28T00:22:47.475Z,90.77
2022-09-28T00:23:18.984Z,91.09
2022-09-28T00:24:15.349Z,89.60
2022-09-28T00:24:47.437Z,90.24
2022-09-28T00:25:21.961Z,90.41
2022-09-28T00:25:53.546Z,90.46
2022-09-28T00:26:26.248Z,90.15
2022-09-28T00:27:01.443Z,89.70
2022-09-28T00:27:32.979Z,89.77
2022-09-28T00:28:05.196Z,89.59
2022-09-28T00:28:36.685Z,89.46
2022-09-28T00:29:20.870Z,90.10
2022-09-28T00:29:52.362Z,90.20
2022-09-28T00:30:23.879Z,89.68
2022-09-28T00:30:56.394Z,89.21
2022-09-28T00:31:31.651Z,89.47
2022-09-28T00:32:10.738Z,89.39
2022-09-28T00:32:42.396Z,89.14
2022-09-28T00:33:13.902Z,89.17
2022-09-28T00:33:45.675Z,88.98
2022-09-28T00:34:17.286Z,88.06
2022-09-28T00:34:49.301Z,87.66
2022-09-28T00:35:20.822Z,87.85
2022-09-28T00:35:58.935Z,87.58
2022-09-28T00:36:32.157Z,87.58
2022-09-28T00:37:05.609Z,87.88
2022-09-28T00:37:37.106Z,87.76
2022-09-28T00:38:09.449Z,86.81
2022-09-28T00:38:40.983Z,86.38
2022-09-28T00:39:14.599Z,87.01
2022-09-28T00:39:47.950Z,86.20
2022-09-28T00:40:19.575Z,86.51
2022-09-28T00:40:51.129Z,86.17
2022-09-28T00:41:27.595Z,85.55
2022-09-28T00:41:59.644Z,86.45
2022-09-28T00:42:31.153Z,86.43
2022-09-28T00:43:18.509Z,85.93
2022-09-28T00:43:50.237Z,86.95
2022-09-28T00:44:24.488Z,86.24
2022-09-28T00:44:59.579Z,85.29
2022-09-28T00:45:31.475Z,84.58
2022-09-28T00:46:09.409Z,84.86
2022-09-28T00:46:41.549Z,84.76
2022-09-28T00:47:49.507Z,85.63
2022-09-28T00:48:21.094Z,84.58
2022-09-28T00:49:03.114Z,85.18
2022-09-28T00:49:45.253Z,85.32
2022-09-28T00:50:22.689Z,85.51
2022-09-28T00:50:56.930Z,86.10
2022-09-28T00:51:29.916Z,86.28
2022-09-28T00:52:02.990Z,85.92
2022-09-28T00:52:49.695Z,85.16
2022-09-28T00:53:29.756Z,86.74
2022-09-28T00:54:03.399Z,86.25
2022-09-28T00:54:35.784Z,85.43
2022-09-28T00:55:11.624Z,85.40
2022-09-28T00:55:48.406Z,85.24
2022-09-28T00:56:25.140Z,85.20
2022-09-28T00:56:57.852Z,86.00
2022-09-28T00:57:30.657Z,85.97
2022-09-28T00:58:05.414Z,86.52
2022-09-28T00:58:42.568Z,86.43
2022-09-28T00:59:15.633Z,86.04
2022-09-28T00:59:47.403Z,86.28
2022-09-28T01:00:19.446Z,86.09
2022-09-28T01:00:51.107Z,86.17
2022-09-28T01:01:22.809Z,86.39
2022-09-28T01:01:54.592Z,85.90
2022-09-28T01:02:26.493Z,86.61
2022-09-28T01:02:59.652Z,86.66
2022-09-28T01:03:33.309Z,85.92
2022-09-28T01:04:06.008Z,86.10
2022-09-28T01:04:38.757Z,85.49
2022-09-28T01:05:11.719Z,86.87
2022-09-28T01:05:44.987Z,86.60
2022-09-28T01:06:22.962Z,86.41
2022-09-28T01:06:55.955Z,86.46
2022-09-28T01:07:27.670Z,86.10
2022-09-28T01:07:59.525Z,86.28
2022-09-28T01:08:33.197Z,86.55
2022-09-28T01:09:09.854Z,86.37
2022-09-28T01:09:41.772Z,86.42
2022-09-28T01:10:14.594Z,86.33
2022-09-28T01:10:46.191Z,86.12
2022-09-28T01:11:18.946Z,86.16
2022-09-28T01:11:50.495Z,86.05
2022-09-28T01:12:22.056Z,86.88
2022-09-28T01:12:55.588Z,86.92
2022-09-28T01:13:28.040Z,87.23
2022-09-28T01:14:00.104Z,86.94
2022-09-28T01:14:31.688Z,87.55
2022-09-28T01:15:04.806Z,87.48
2022-09-28T01:16:00.177Z,87.57
2022-09-28T01:16:57.640Z,87.21
2022-09-28T01:17:58.612Z,87.06
2022-09-28T01:18:47.448Z,86.56
2022-09-28T01:19:42.242Z,86.61
2022-09-28T01:20:35.415Z,86.97
2022-09-28T01:21:21.196Z,86.69
2022-09-28T01:22:04.280Z,87.42
2022-09-28T01:22:54.454Z,88.26
2022-09-28T01:24:00.276Z,87.16
2022-09-28T01:24:48.262Z,87.65
2022-09-28T01:25:27.936Z,87.62
2022-09-28T01:26:30.566Z,87.78
2022-09-28T01:27:13.983Z,87.95
2022-09-28T01:27:51.596Z,87.24
2022-09-28T01:28:28.917Z,87.75
2022-09-28T01:29:28.831Z,87.86
2022-09-28T01:30:07.872Z,88.04
2022-09-28T01:30:46.011Z,88.49
2022-09-28T01:31:18.902Z,88.21
2022-09-28T01:31:56.716Z,88.52
2022-09-28T01:32:55.423Z,87.84
2022-09-28T01:33:48.810Z,87.88
2022-09-28T01:34:28.738Z,87.30
2022-09-28T01:35:07.292Z,87.76
2022-09-28T01:35:47.676Z,87.39
2022-09-28T01:36:38.785Z,87.57
2022-09-28T01:37:14.012Z,87.24
2022-09-28T01:38:09.462Z,87.80
2022-09-28T01:38:46.452Z,87.97
2022-09-28T01:39:33.992Z,88.07
2022-09-28T01:40:09.415Z,88.47
2022-09-28T01:40:41.943Z,88.73
2022-09-28T01:41:14.191Z,88.46
2022-09-28T01:41:51.282Z,88.84
2022-09-28T01:42:28.588Z,88.85
2022-09-28T01:43:08.650Z,89.31
2022-09-28T01:43:44.113Z,89.00
2022-09-28T01:44:19.798Z,88.91
2022-09-28T01:44:55.554Z,89.15
2022-09-28T01:45:32.551Z,89.67
2022-09-28T01:46:12.202Z,89.53
2022-09-28T01:46:48.228Z,89.45
2022-09-28T01:47:22.859Z,89.77
2022-09-28T01:48:00.035Z,90.22
2022-09-28T01:48:37.862Z,89.67
2022-09-28T01:49:14.827Z,90.09
2022-09-28T01:49:52.166Z,90.82
2022-09-28T01:50:26.354Z,90.22
2022-09-28T01:51:02.005Z,90.23
2022-09-28T01:51:51.088Z,90.33
2022-09-28T01:52:33.688Z,90.45
2022-09-28T01:53:20.538Z,90.87
2022-09-28T01:53:56.036Z,90.77
2022-09-28T01:54:36.910Z,90.26
2022-09-28T01:55:18.507Z,90.33
2022-09-28T01:55:57.165Z,90.31
2022-09-28T01:56:38.304Z,89.78
2022-09-28T01:57:17.546Z,89.38
2022-09-28T01:58:00.955Z,89.07
2022-09-28T01:58:56.767Z,89.82
2022-09-28T01:59:32.197Z,89.67
2022-09-28T02:00:12.610Z,89.65
2022-09-28T02:01:29.818Z,89.43
2022-09-28T02:02:10.156Z,89.01
2022-09-28T02:02:54.620Z,89.32
2022-09-28T02:03:34.805Z,89.57
2022-09-28T02:04:18.756Z,89.79
2022-09-28T02:04:52.342Z,89.44
2022-09-28T02:05:30.035Z,89.00
2022-09-28T02:06:08.290Z,89.14
2022-09-28T02:07:27.028Z,88.19
2022-09-28T02:08:07.283Z,88.36
2022-09-28T02:09:02.246Z,89.45
2022-09-28T02:09:45.926Z,89.14
2022-09-28T02:10:22.522Z,89.24
2022-09-28T02:11:12.732Z,89.52
2022-09-28T02:11:49.418Z,89.10
2022-09-28T02:12:44.541Z,89.15
2022-09-28T02:13:25.060Z,89.12
2022-09-28T02:14:03.064Z,88.86
2022-09-28T02:14:36.457Z,89.47
2022-09-28T02:15:22.045Z,88.86
2022-09-28T02:16:07.096Z,88.19
2022-09-28T02:16:47.769Z,87.66
2022-09-28T02:17:19.746Z,87.48
2022-09-28T02:17:51.869Z,87.58
2022-09-28T02:18:23.403Z,86.66
2022-09-28T02:18:55.014Z,87.59
2022-09-28T02:19:28.492Z,87.08
2022-09-28T02:20:00.143Z,87.39
2022-09-28T02:20:34.374Z,86.52
2022-09-28T02:21:38.743Z,86.66
2022-09-28T02:22:28.532Z,86.65
2022-09-28T02:23:02.982Z,86.82
2022-09-28T02:23:39.956Z,86.81
2022-09-28T02:24:24.572Z,86.62
2022-09-28T02:25:01.330Z,87.12
2022-09-28T02:25:41.656Z,86.27
2022-09-28T02:26:17.061Z,86.73
2022-09-28T02:26:50.677Z,86.66
2022-09-28T02:27:31.189Z,85.66
2022-09-28T02:28:06.060Z,85.79
2022-09-28T02:28:37.609Z,85.56
2022-09-28T02:29:09.152Z,85.69
2022-09-28T02:29:40.666Z,86.06
2022-09-28T02:30:12.475Z,85.18
2022-09-28T02:30:44.875Z,84.68
2022-09-28T02:31:16.533Z,84.89
2022-09-28T02:31:48.091Z,85.40
2022-09-28T02:32:20.297Z,84.19
2022-09-28T02:32:56.822Z,84.65
2022-09-28T02:33:36.797Z,83.85
2022-09-28T02:34:09.523Z,83.89
2022-09-28T02:34:41.057Z,84.04
2022-09-28T02:35:15.530Z,83.64
2022-09-28T02:35:47.470Z,83.63
2022-09-28T02:36:19.114Z,84.05
2022-09-28T02:36:50.672Z,83.31
2022-09-28T02:37:22.366Z,82.98
2022-09-28T02:37:55.088Z,83.85
2022-09-28T02:38:26.870Z,83.57
2022-09-28T02:38:58.623Z,83.91
2022-09-28T02:39:30.162Z,84.08
2022-09-28T02:40:02.092Z,83.55
2022-09-28T02:40:36.185Z,83.56
2022-09-28T02:41:35.193Z,83.30
2022-09-28T02:42:19.935Z,83.43
2022-09-28T02:43:18.593Z,84.60
2022-09-28T02:44:06.118Z,84.61
2022-09-28T02:44:48.966Z,84.53
2022-09-28T02:45:25.849Z,84.59
2022-09-28T02:46:32.683Z,84.48
2022-09-28T02:47:15.775Z,85.06
2022-09-28T02:48:06.026Z,84.30
2022-09-28T02:49:20.190Z,83.45
2022-09-28T02:49:52.203Z,83.99
2022-09-28T02:50:51.493Z,84.37
2022-09-28T02:51:48.939Z,84.42
2022-09-28T02:52:55.770Z,83.91
2022-09-28T02:53:39.290Z,84.36
2022-09-28T02:54:27.761Z,84.42
2022-09-28T02:55:33.160Z,84.67
2022-09-28T02:56:32.508Z,83.96
2022-09-28T02:57:07.047Z,84.08
2022-09-28T02:57:38.532Z,84.28
2022-09-28T02:58:36.283Z,84.88
2022-09-28T02:59:19.956Z,84.66
2022-09-28T03:00:12.051Z,85.06
2022-09-28T03:01:24.399Z,85.39
2022-09-28T03:02:14.180Z,86.05
2022-09-28T03:03:13.506Z,85.62
2022-09-28T03:03:57.693Z,85.95
2022-09-28T03:04:35.043Z,85.86
2022-09-28T03:05:14.398Z,85.22
2022-09-28T03:05:51.769Z,86.21
2022-09-28T03:06:31.940Z,85.92
2022-09-28T03:07:14.608Z,86.25
2022-09-28T03:08:20.288Z,86.00
2022-09-28T03:09:03.183Z,86.75
2022-09-28T03:09:39.220Z,86.75
2022-09-28T03:10:18.129Z,86.16
2022-09-28T03:11:02.501Z,86.74
2022-09-28T03:11:39.318Z,86.91
2022-09-28T03:12:14.457Z,86.84
2022-09-28T03:12:48.867Z,86.48
2022-09-28T03:13:20.859Z,86.05
2022-09-28T03:13:53.296Z,85.81
2022-09-28T03:14:25.164Z,86.59
2022-09-28T03:15:20.172Z,86.23
2022-09-28T03:15:51.802Z,86.21
2022-09-28T03:16:23.583Z,87.09
2022-09-28T03:16:55.162Z,87.19
2022-09-28T03:17:26.655Z,86.94
2022-09-28T03:17:58.725Z,87.18
2022-09-28T03:18:32.105Z,86.70
2022-09-28T03:19:03.604Z,86.93
2022-09-28T03:19:36.743Z,87.23
2022-09-28T03:20:10.034Z,87.17
2022-09-28T03:20:41.549Z,87.19
2022-09-28T03:21:15.010Z,87.13
2022-09-28T03:21:46.512Z,87.04
2022-09-28T03:22:18.021Z,87.25
2022-09-28T03:23:12.294Z,86.56
2022-09-28T03:23:42.210Z,87.17
2022-09-28T03:24:13.707Z,87.13
2022-09-28T03:24:45.186Z,87.64
2022-09-28T03:25:17.029Z,87.72
2022-09-28T03:25:48.520Z,88.17
2022-09-28T03:26:20.170Z,88.06
2022-09-28T03:26:51.765Z,87.81
2022-09-28T03:27:23.289Z,87.81
2022-09-28T03:27:54.775Z,88.03
2022-09-28T03:28:27.060Z,88.08
2022-09-28T03:28:58.555Z,88.39
2022-09-28T03:29:32.952Z,88.94
2022-09-28T03:30:05.171Z,88.82
2022-09-28T03:30:36.660Z,88.47
2022-09-28T03:31:08.484Z,88.22
2022-09-28T03:31:40.187Z,88.13
2022-09-28T03:32:11.722Z,88.46
2022-09-28T03:32:43.296Z,88.32
2022-09-28T03:33:14.788Z,88.14
2022-09-28T03:33:46.515Z,87.70
2022-09-28T03:34:18.044Z,87.79
2022-09-28T03:34:49.715Z,87.93
2022-09-28T03:35:21.198Z,89.21
2022-09-28T03:35:53.374Z,88.56
2022-09-28T03:36:24.885Z,88.11
2022-09-28T03:36:56.406Z,88.33
2022-09-28T03:37:28.808Z,88.23
2022-09-28T03:38:00.336Z,87.82
2022-09-28T03:38:31.969Z,87.54
2022-09-28T03:39:04.411Z,88.36
2022-09-28T03:39:36.328Z,88.63
2022-09-28T03:40:08.177Z,89.14
2022-09-28T03:40:39.987Z,89.52
2022-09-28T03:41:11.598Z,89.02
2022-09-28T03:41:43.310Z,89.00
2022-09-28T03:42:14.890Z,89.06
2022-09-28T03:42:46.736Z,88.36
2022-09-28T03:43:18.455Z,88.19
2022-09-28T03:43:50.001Z,88.57
2022-09-28T03:44:21.509Z,88.69
2022-09-28T03:44:52.998Z,89.07
2022-09-28T03:45:24.579Z,89.05
2022-09-28T03:45:58.352Z,88.57
2022-09-28T03:46:29.930Z,88.57
2022-09-28T03:47:01.439Z,88.67
2022-09-28T03:47:32.951Z,88.69
2022-09-28T03:48:04.569Z,88.57
2022-09-28T03:48:36.496Z,88.89
2022-09-28T03:49:09.913Z,89.32
2022-09-28T03:49:41.795Z,89.62
2022-09-28T03:50:14.252Z,89.96
2022-09-28T03:50:45.817Z,89.46
2022-09-28T03:51:17.486Z,89.79
2022-09-28T03:51:48.978Z,89.36
2022-09-28T03:52:20.490Z,88.89
2022-09-28T03:52:51.983Z,89.23
2022-09-28T03:53:23.930Z,88.99
2022-09-28T03:53:55.487Z,88.61
2022-09-28T03:54:26.985Z,88.32
2022-09-28T03:54:58.710Z,88.22
2022-09-28T03:55:30.521Z,87.41
2022-09-28T03:56:07.369Z,88.05
2022-09-28T03:56:38.962Z,88.16
2022-09-28T03:57:10.463Z,88.29
2022-09-28T03:57:41.961Z,88.05
2022-09-28T03:58:13.497Z,87.84
2022-09-28T03:58:44.983Z,87.87
2022-09-28T03:59:16.654Z,87.88
2022-09-28T03:59:48.200Z,88.42
2022-09-28T04:00:19.895Z,89.04
2022-09-28T04:00:51.709Z,88.58
2022-09-28T04:01:23.307Z,88.81
2022-09-28T04:01:55.003Z,88.44
2022-09-28T04:02:26.652Z,87.92
2022-09-28T04:02:58.181Z,87.69
2022-09-28T04:03:29.760Z,87.52
2022-09-28T04:04:01.543Z,87.63
2022-09-28T04:04:33.065Z,87.77
2022-09-28T04:05:04.802Z,87.77
2022-09-28T04:05:36.388Z,88.43
2022-09-28T04:06:07.920Z,87.97
2022-09-28T04:06:39.778Z,88.20
2022-09-28T04:07:11.278Z,87.91
2022-09-28T04:07:42.766Z,87.62
2022-09-28T04:08:14.283Z,88.04
2022-09-28T04:08:45.812Z,87.98
2022-09-28T04:09:17.397Z,87.76
2022-09-28T04:09:48.937Z,87.80
2022-09-28T04:10:20.426Z,88.64
2022-09-28T04:10:52.272Z,88.09
2022-09-28T04:11:24.259Z,88.69
2022-09-28T04:12:03.985Z,88.05
2022-09-28T04:12:35.912Z,88.16
2022-09-28T04:13:07.401Z,87.86
2022-09-28T04:13:39.312Z,87.64
2022-09-28T04:14:10.810Z,87.72
2022-09-28T04:14:42.306Z,87.51
2022-09-28T04:15:13.945Z,87.46
2022-09-28T04:15:53.397Z,87.88
2022-09-28T04:16:25.082Z,87.81
2022-09-28T04:16:56.633Z,87.77
2022-09-28T04:17:28.120Z,88.21
2022-09-28T04:17:59.621Z,88.07
2022-09-28T04:18:32.633Z,88.99
2022-09-28T04:19:04.587Z,88.58
2022-09-28T04:19:36.118Z,88.60
2022-09-28T04:20:08.565Z,88.53
2022-09-28T04:20:41.521Z,88.42
2022-09-28T04:21:19.422Z,88.95
2022-09-28T04:21:51.888Z,89.29
2022-09-28T04:22:23.410Z,88.94
2022-09-28T04:22:55.455Z,89.09
2022-09-28T04:23:28.144Z,89.06
2022-09-28T04:23:59.650Z,89.03
2022-09-28T04:24:31.215Z,88.70
2022-09-28T04:25:02.747Z,88.48
2022-09-28T04:25:34.263Z,88.27
2022-09-28T04:26:08.352Z,88.25
2022-09-28T04:26:39.938Z,88.25
2022-09-28T04:27:30.072Z,88.81
2022-09-28T04:28:20.285Z,89.21
2022-09-28T04:29:10.539Z,89.45
2022-09-28T04:29:44.121Z,88.82
2022-09-28T04:30:16.413Z,88.76
2022-09-28T04:30:47.928Z,88.52
2022-09-28T04:31:24.450Z,88.96
2022-09-28T04:31:56.256Z,89.28
2022-09-28T04:32:27.846Z,89.61
2022-09-28T04:32:59.333Z,90.60
2022-09-28T04:33:31.665Z,90.76
2022-09-28T04:34:03.157Z,90.37
2022-09-28T04:34:37.235Z,90.06
2022-09-28T04:35:11.960Z,89.68
2022-09-28T04:35:43.539Z,89.71
2022-09-28T04:36:15.120Z,89.66
2022-09-28T04:36:47.709Z,89.54
2022-09-28T04:37:19.221Z,89.88
2022-09-28T04:37:50.745Z,89.94
2022-09-28T04:38:35.849Z,89.68
2022-09-28T04:39:15.114Z,90.28
2022-09-28T04:39:48.552Z,90.22
2022-09-28T04:40:20.328Z,90.04
2022-09-28T04:40:51.950Z,89.59
2022-09-28T04:41:23.658Z,89.57
2022-09-28T04:41:55.151Z,90.40
2022-09-28T04:42:26.643Z,90.28
2022-09-28T04:42:58.225Z,90.65
2022-09-28T04:43:29.743Z,90.37
2022-09-28T04:44:01.625Z,89.95
2022-09-28T04:44:33.136Z,89.83
2022-09-28T04:45:05.245Z,89.98
2022-09-28T04:45:36.776Z,90.28
2022-09-28T04:46:10.640Z,90.30
2022-09-28T04:46:42.219Z,90.49
2022-09-28T04:47:13.721Z,90.55
2022-09-28T04:47:45.274Z,90.70
2022-09-28T04:48:17.376Z,90.54
2022-09-28T04:48:48.903Z,90.44
2022-09-28T04:49:20.409Z,90.08
2022-09-28T04:49:51.970Z,90.06
2022-09-28T04:50:23.472Z,90.35
2022-09-28T04:50:56.439Z,90.61
2022-09-28T04:51:31.025Z,90.44
2022-09-28T04:52:02.589Z,90.98
2022-09-28T04:52:36.526Z,90.94
2022-09-28T04:53:08.050Z,90.94
2022-09-28T04:53:39.709Z,90.53
2022-09-28T04:54:11.222Z,90.70
2022-09-28T04:54:42.775Z,90.69
2022-09-28T04:55:14.628Z,90.69
2022-09-28T04:55:55.606Z,90.51
2022-09-28T04:56:27.121Z,90.22
2022-09-28T04:56:58.914Z,90.50
2022-09-28T04:57:30.405Z,90.85
2022-09-28T04:58:04.394Z,90.79
2022-09-28T04:58:36.159Z,91.02
2022-09-28T04:59:07.760Z,91.14
2022-09-28T04:59:39.272Z,90.87
2022-09-28T05:00:12.133Z,91.18
2022-09-28T05:00:43.636Z,91.57
2022-09-28T05:01:18.272Z,91.23
2022-09-28T05:01:49.879Z,91.54
2022-09-28T05:02:21.539Z,92.18
2022-09-28T05:02:53.998Z,92.11
2022-09-28T05:03:26.313Z,91.50
2022-09-28T05:03:57.835Z,91.25
2022-09-28T05:04:30.669Z,91.73
2022-09-28T05:05:02.214Z,91.69
2022-09-28T05:05:33.707Z,91.88
2022-09-28T05:06:06.955Z,91.25
2022-09-28T05:06:38.449Z,91.47
2022-09-28T05:07:10.081Z,91.14
2022-09-28T05:07:41.954Z,91.58
2022-09-28T05:08:13.705Z,91.89
2022-09-28T05:08:46.862Z,92.18
2022-09-28T05:09:18.571Z,91.57
2022-09-28T05:09:50.422Z,91.55
2022-09-28T05:10:21.949Z,92.02
2022-09-28T05:11:06.105Z,91.71
2022-09-28T05:11:37.626Z,92.05
2022-09-28T05:12:09.715Z,91.77
2022-09-28T05:12:41.207Z,91.61
2022-09-28T05:13:14.049Z,91.50
2022-09-28T05:13:45.889Z,91.55
2022-09-28T05:14:17.450Z,91.76
2022-09-28T05:14:49.037Z,91.62
2022-09-28T05:15:20.521Z,91.54
2022-09-28T05:15:58.107Z,91.63
2022-09-28T05:16:33.774Z,91.75
2022-09-28T05:17:05.724Z,91.57
2022-09-28T05:17:37.223Z,91.85
2022-09-28T05:18:09.010Z,91.90
2022-09-28T05:18:40.613Z,91.99
2022-09-28T05:19:12.511Z,91.86
2022-09-28T05:19:44.043Z,92.60
2022-09-28T05:20:15.629Z,92.16
2022-09-28T05:20:47.305Z,92.32
2022-09-28T05:21:20.097Z,92.85
2022-09-28T05:21:51.614Z,92.59
2022-09-28T05:22:23.193Z,92.70
2022-09-28T05:22:54.754Z,92.21
2022-09-28T05:23:26.264Z,92.40
2022-09-28T05:23:58.341Z,92.26
2022-09-28T05:24:30.601Z,92.20
2022-09-28T05:25:02.934Z,92.36
2022-09-28T05:25:34.438Z,92.63
2022-09-28T05:26:06.334Z,93.51
2022-09-28T05:26:37.946Z,93.35
2022-09-28T05:27:09.465Z,93.24
2022-09-28T05:27:40.944Z,93.40
2022-09-28T05:28:12.609Z,93.89
2022-09-28T05:28:44.710Z,93.82
2022-09-28T05:29:16.248Z,93.96
2022-09-28T05:29:47.911Z,94.00
2022-09-28T05:30:19.477Z,94.10
2022-09-28T05:30:51.017Z,93.57
2022-09-28T05:31:22.561Z,93.65
2022-09-28T05:31:54.156Z,93.88
2022-09-28T05:32:25.732Z,94.11
2022-09-28T05:32:57.298Z,93.90
2022-09-28T05:33:29.172Z,93.68
2022-09-28T05:34:00.658Z,93.94
2022-09-28T05:34:32.179Z,93.47
2022-09-28T05:35:06.270Z,93.46
2022-09-28T05:35:37.801Z,93.33
2022-09-28T05:36:12.913Z,94.22
2022-09-28T05:36:45.736Z,94.28
2022-09-28T05:37:17.267Z,94.29
2022-09-28T05:37:49.438Z,94.14
2022-09-28T05:38:20.986Z,94.11
2022-09-28T05:38:52.526Z,94.12
2022-09-28T05:39:24.028Z,93.88
2022-09-28T05:39:55.526Z,93.72
2022-09-28T05:40:27.067Z,93.41
2022-09-28T05:40:59.720Z,92.97
2022-09-28T05:41:33.638Z,93.68
2022-09-28T05:42:05.199Z,93.86
2022-09-28T05:42:36.748Z,93.44
2022-09-28T05:43:08.245Z,93.21
2022-09-28T05:43:39.752Z,93.35
2022-09-28T05:44:11.339Z,92.98
2022-09-28T05:44:43.166Z,92.93
2022-09-28T05:45:15.150Z,93.06
2022-09-28T05:45:47.835Z,93.40
2022-09-28T05:46:23.707Z,92.84
2022-09-28T05:46:55.429Z,93.17
2022-09-28T05:47:27.386Z,93.36
2022-09-28T05:47:58.933Z,92.87
2022-09-28T05:48:30.576Z,92.72
2022-09-28T05:49:02.253Z,92.51
2022-09-28T05:49:33.746Z,92.60
2022-09-28T05:50:06.830Z,92.43
2022-09-28T05:50:38.332Z,92.48
2022-09-28T05:51:10.342Z,92.65
2022-09-28T05:51:41.848Z,92.41
2022-09-28T05:52:14.139Z,92.14
2022-09-28T05:52:45.832Z,92.24
2022-09-28T05:53:17.342Z,92.26
2022-09-28T05:53:48.869Z,92.44
2022-09-28T05:54:20.474Z,91.91
2022-09-28T05:54:52.118Z,91.95
2022-09-28T05:55:23.700Z,91.83
2022-09-28T05:55:59.371Z,91.61
2022-09-28T05:56:31.687Z,91.53
2022-09-28T05:57:05.952Z,91.11
2022-09-28T05:57:37.514Z,90.99
2022-09-28T05:58:09.212Z,91.11
2022-09-28T05:58:40.771Z,90.77
2022-09-28T05:59:13.426Z,91.21
2022-09-28T05:59:45.038Z,91.02
2022-09-28T06:00:16.633Z,90.58
2022-09-28T06:00:57.584Z,90.98
2022-09-28T06:01:29.211Z,91.49
2022-09-28T06:02:00.994Z,91.06
2022-09-28T06:02:32.574Z,90.44
2022-09-28T06:03:09.220Z,90.37
2022-09-28T06:03:41.098Z,89.57
2022-09-28T06:04:14.617Z,89.57
2022-09-28T06:04:48.268Z,90.69
2022-09-28T06:05:19.766Z,90.40
2022-09-28T06:05:51.725Z,89.66
2022-09-28T06:06:23.249Z,89.39
2022-09-28T06:06:55.221Z,89.87
2022-09-28T06:07:26.814Z,89.60
2022-09-28T06:07:59.453Z,89.05
2022-09-28T06:08:32.801Z,89.66
2022-09-28T06:09:04.497Z,89.28
2022-09-28T06:09:36.073Z,88.47
2022-09-28T06:10:07.935Z,88.37
2022-09-28T06:10:40.916Z,88.17
2022-09-28T06:11:12.588Z,88.03
2022-09-28T06:11:44.186Z,88.55
2022-09-28T06:12:16.096Z,87.54
2022-09-28T06:12:48.648Z,87.67
2022-09-28T06:13:20.713Z,87.79
2022-09-28T06:13:57.902Z,88.62
2022-09-28T06:14:29.406Z,87.64
2022-09-28T06:15:01.309Z,87.78
2022-09-28T06:15:35.245Z,87.94
2022-09-28T06:16:11.457Z,87.44
2022-09-28T06:16:44.040Z,86.30
2022-09-28T06:17:15.741Z,86.79
2022-09-28T06:17:47.593Z,87.13
2022-09-28T06:18:19.323Z,87.50
2022-09-28T06:18:50.836Z,87.44
2022-09-28T06:19:22.333Z,87.70
2022-09-28T06:19:53.868Z,88.02
2022-09-28T06:20:27.445Z,88.53
2022-09-28T06:20:59.153Z,87.39
2022-09-28T06:21:30.648Z,87.20
2022-09-28T06:22:02.300Z,86.64
2022-09-28T06:22:33.808Z,86.56
2022-09-28T06:23:05.336Z,86.77
2022-09-28T06:23:36.873Z,87.42
2022-09-28T06:24:08.571Z,87.65
2022-09-28T06:24:40.139Z,86.40
2022-09-28T06:25:11.631Z,86.16
2022-09-28T06:25:43.604Z,85.57
2022-09-28T06:26:15.149Z,85.06
2022-09-28T06:26:46.641Z,85.34
2022-09-28T06:27:18.155Z,85.36
2022-09-28T06:27:59.554Z,84.79
2022-09-28T06:28:31.117Z,84.60
2022-09-28T06:29:03.532Z,84.61
2022-09-28T06:29:35.045Z,84.86
2022-09-28T06:30:07.029Z,84.70
2022-09-28T06:30:39.144Z,85.83
2022-09-28T06:31:10.923Z,84.83
2022-09-28T06:31:42.589Z,84.45
2022-09-28T06:32:14.123Z,84.18
2022-09-28T06:32:45.640Z,83.85
2022-09-28T06:33:17.157Z,84.13
2022-09-28T06:33:51.925Z,84.22
2022-09-28T06:34:24.786Z,83.59
2022-09-28T06:34:57.012Z,83.41
2022-09-28T06:35:30.618Z,82.81
2022-09-28T06:36:02.111Z,82.81
2022-09-28T06:36:33.864Z,83.14
2022-09-28T06:37:05.373Z,83.56
2022-09-28T06:37:36.929Z,83.56
2022-09-28T06:38:08.988Z,83.14
2022-09-28T06:38:40.472Z,82.95
2022-09-28T06:39:11.960Z,82.70
2022-09-28T06:39:43.458Z,82.45
2022-09-28T06:40:15.546Z,82.08
2022-09-28T06:40:47.088Z,81.86
2022-09-28T06:41:18.615Z,81.72
2022-09-28T06:41:50.094Z,81.23
2022-09-28T06:42:22.067Z,81.47
2022-09-28T06:42:58.608Z,81.22
2022-09-28T06:43:34.258Z,81.07
2022-09-28T06:44:06.034Z,80.82
2022-09-28T06:44:37.640Z,79.83
2022-09-28T06:45:10.706Z,78.68
2022-09-28T06:45:43.267Z,77.26
2022-09-28T06:46:15.318Z,75.10
2022-09-28T06:46:46.840Z,72.65
2022-09-28T06:47:18.472Z,70.76
2022-09-28T06:47:57.457Z,69.43
2022-09-28T06:48:28.964Z,68.60
2022-09-28T06:49:00.505Z,67.51
2022-09-28T06:49:32.001Z,65.38
2022-09-28T06:50:11.025Z,64.95
2022-09-28T06:50:42.954Z,63.46
2022-09-28T06:51:14.642Z,63.92
2022-09-28T06:51:46.188Z,65.24
2022-09-28T06:52:17.678Z,65.93
2022-09-28T06:52:54.013Z,64.34
2022-09-28T06:53:27.180Z,64.06
2022-09-28T06:53:58.703Z,62.82
2022-09-28T06:54:30.226Z,61.40
2022-09-28T06:55:01.759Z,60.51
2022-09-28T06:55:33.330Z,59.37
2022-09-28T06:56:06.944Z,60.04
2022-09-28T06:56:38.435Z,60.14
2022-09-28T06:57:09.973Z,60.17
2022-09-28T06:57:41.511Z,62.15
2022-09-28T06:58:15.064Z,63.01
2022-09-28T06:58:47.289Z,64.31
2022-09-28T06:59:18.887Z,64.71
2022-09-28T06:59:50.417Z,65.43
2022-09-28T07:00:21.923Z,65.75
2022-09-28T07:00:59.325Z,66.25
2022-09-28T07:01:31.029Z,64.64
2022-09-28T07:02:02.773Z,62.27
2022-09-28T07:02:34.511Z,59.27
2022-09-28T07:03:09.166Z,56.23
2022-09-28T07:03:40.727Z,52.64
2022-09-28T07:04:12.244Z,51.39
2022-09-28T07:04:43.747Z,49.92
2022-09-28T07:05:15.273Z,48.17
2022-09-28T07:05:49.791Z,47.46
2022-09-28T07:06:24.076Z,45.62
2022-09-28T07:06:55.605Z,45.28
2022-09-28T07:07:27.115Z,44.46
2022-09-28T07:07:58.731Z,43.74
2022-09-28T07:08:30.263Z,43.30
2022-09-28T07:09:26.462Z,42.70
2022-09-28T07:09:57.843Z,45.00
2022-09-28T07:10:31.023Z,44.85
2022-09-28T07:11:06.333Z,46.29
2022-09-28T07:11:39.650Z,45.77
2022-09-28T07:12:13.209Z,43.97
2022-09-28T07:12:44.698Z,42.95
2022-09-28T07:13:45.686Z,43.36
2022-09-28T07:14:18.383Z,43.18
2022-09-28T07:14:58.391Z,41.41
2022-09-28T07:15:30.901Z,42.70
2022-09-28T07:16:02.430Z,43.58
2022-09-28T07:16:59.570Z,44.61
2022-09-28T07:17:25.529Z,42.93
2022-09-28T07:18:03.797Z,42.52
2022-09-28T07:18:35.702Z,41.37
2022-09-28T07:19:07.319Z,43.47
2022-09-28T07:19:38.818Z,42.25
2022-09-28T07:20:18.400Z,42.19
2022-09-28T07:20:54.446Z,41.86
2022-09-28T07:21:30.197Z,40.11
2022-09-28T07:22:05.402Z,41.36
2022-09-28T07:22:42.868Z,41.33
2022-09-28T07:23:19.470Z,41.81
2022-09-28T07:23:54.270Z,40.25
2022-09-28T07:24:26.012Z,41.98
2022-09-28T07:24:58.398Z,43.37
2022-09-28T07:25:31.518Z,42.39
2022-09-28T07:26:07.792Z,42.49
2022-09-28T07:26:40.511Z,44.11
2022-09-28T07:27:12.035Z,45.06
2022-09-28T07:27:43.574Z,46.62
2022-09-28T07:28:16.423Z,47.07
2022-09-28T07:28:47.928Z,46.28
2022-09-28T07:29:19.432Z,45.36
2022-09-28T07:29:52.972Z,44.56
2022-09-28T07:30:26.647Z,43.59
2022-09-28T07:30:58.337Z,44.05